createdAt,value
2017-07-20T00:02:08.497Z,5.37
2017-07-20T00:04:36.452Z,5.10
2017-07-20T00:07:03.384Z,6.00
2017-07-20T00:09:30.364Z,5.43
2017-07-20T00:11:57.292Z,5.67
2017-07-20T00:14:24.252Z,5.60
2017-07-20T00:16:51.969Z,6.03
2017-07-20T00:19:18.917Z,5.13
2017-07-20T00:21:45.847Z,5.70
2017-07-20T00:24:14.135Z,5.80
2017-07-20T00:26:41.068Z,5.83
2017-07-20T00:29:08.003Z,6.93
2017-07-20T00:31:35.704Z,6.60
2017-07-20T00:34:02.664Z,6.73
2017-07-20T00:36:29.610Z,7.10
2017-07-20T00:38:56.579Z,6.70
2017-07-20T00:41:24.283Z,7.20
2017-07-20T00:43:51.223Z,8.57
2017-07-20T00:46:18.859Z,8.10
2017-07-20T00:48:46.571Z,7.60
2017-07-20T00:51:14.525Z,8.27
2017-07-20T00:53:41.520Z,7.43
2017-07-20T00:56:08.452Z,7.77
2017-07-20T00:58:35.411Z,8.53
2017-07-20T01:01:02.373Z,8.40
2017-07-20T01:03:30.061Z,8.50
2017-07-20T01:05:57.025Z,8.80
2017-07-20T01:08:23.983Z,7.70
2017-07-20T01:10:50.936Z,9.00
2017-07-20T01:13:17.873Z,8.77
2017-07-20T01:15:44.819Z,9.63
2017-07-20T01:18:11.762Z,8.37
2017-07-20T01:20:38.737Z,8.50
2017-07-20T01:23:06.446Z,9.40
2017-07-20T01:25:33.404Z,8.83
2017-07-20T01:28:00.341Z,7.97
2017-07-20T01:30:27.313Z,9.50
2017-07-20T01:32:54.252Z,8.30
2017-07-20T01:35:21.198Z,8.83
2017-07-20T01:37:50.152Z,8.57
2017-07-20T01:40:17.112Z,8.70
2017-07-20T01:42:44.065Z,8.87
2017-07-20T01:45:12.033Z,8.47
2017-07-20T01:47:38.962Z,9.77
2017-07-20T01:50:05.918Z,10.13
2017-07-20T01:52:33.621Z,8.80
2017-07-20T01:55:00.586Z,8.87
2017-07-20T01:57:27.517Z,9.47
2017-07-20T01:59:54.478Z,8.87
2017-07-20T02:02:21.418Z,9.40
2017-07-20T02:04:48.384Z,9.20
2017-07-20T02:07:15.330Z,8.47
2017-07-20T02:09:43.981Z,9.17
2017-07-20T02:12:10.930Z,9.40
2017-07-20T02:14:37.897Z,8.77
2017-07-20T02:17:05.815Z,10.80
2017-07-20T02:19:32.801Z,8.40
2017-07-20T02:22:00.527Z,9.53
2017-07-20T02:24:27.501Z,10.07
2017-07-20T02:26:54.506Z,8.80
2017-07-20T02:29:21.444Z,8.93
2017-07-20T02:31:48.400Z,9.87
2017-07-20T02:34:15.346Z,10.20
2017-07-20T02:36:43.269Z,9.10
2017-07-20T02:39:10.952Z,9.73
2017-07-20T02:41:38.986Z,8.13
2017-07-20T02:44:05.919Z,8.87
2017-07-20T02:46:32.857Z,9.90
2017-07-20T02:48:59.855Z,9.50
2017-07-20T02:51:27.560Z,11.63
2017-07-20T02:53:54.525Z,9.20
2017-07-20T02:56:21.480Z,9.50
2017-07-20T02:58:48.413Z,11.00
2017-07-20T03:01:15.413Z,10.90
2017-07-20T03:03:42.374Z,8.93
2017-07-20T03:06:09.353Z,10.37
2017-07-20T03:08:36.294Z,11.27
2017-07-20T03:11:03.222Z,8.67
2017-07-20T03:13:30.192Z,10.70
2017-07-20T03:15:57.129Z,10.00
2017-07-20T03:18:24.096Z,10.37
2017-07-20T03:20:51.045Z,10.57
2017-07-20T03:23:18.842Z,11.03
2017-07-20T03:25:45.812Z,11.80
2017-07-20T03:28:12.787Z,12.43
2017-07-20T03:30:40.709Z,10.00
2017-07-20T03:33:07.645Z,11.00
2017-07-20T03:35:34.640Z,11.10
2017-07-20T03:38:01.586Z,9.57
2017-07-20T03:40:28.867Z,11.80
2017-07-20T03:42:56.555Z,12.23
2017-07-20T03:45:24.449Z,10.30
2017-07-20T03:47:51.405Z,11.40
2017-07-20T03:50:19.358Z,11.07
2017-07-20T03:52:46.321Z,11.30
2017-07-20T03:55:14.190Z,11.10
2017-07-20T03:57:41.111Z,10.53
2017-07-20T04:00:08.074Z,12.23
2017-07-20T04:02:35.020Z,12.10
2017-07-20T04:05:01.971Z,14.70
2017-07-20T04:07:28.918Z,12.67
2017-07-20T04:09:56.834Z,12.33
2017-07-20T04:12:24.539Z,13.10
2017-07-20T04:14:51.488Z,11.37
2017-07-20T04:17:19.345Z,11.63
2017-07-20T04:19:46.300Z,12.00
2017-07-20T04:22:13.246Z,13.20
2017-07-20T04:24:40.218Z,12.93
2017-07-20T04:27:07.921Z,11.47
2017-07-20T04:29:35.065Z,11.33
2017-07-20T04:32:02.008Z,13.60
2017-07-20T04:34:28.946Z,12.40
2017-07-20T04:36:56.602Z,12.57
2017-07-20T04:39:23.540Z,11.97
2017-07-20T04:41:54.006Z,13.03
2017-07-20T04:44:20.971Z,13.40
2017-07-20T04:46:47.902Z,13.20
2017-07-20T04:49:14.837Z,15.33
2017-07-20T04:51:41.792Z,15.20
2017-07-20T04:54:08.731Z,15.70
2017-07-20T04:56:35.689Z,13.17
2017-07-20T04:59:02.634Z,15.57
2017-07-20T05:01:30.380Z,15.67
2017-07-20T05:03:57.331Z,16.67
2017-07-20T05:06:24.270Z,17.90
2017-07-20T05:08:51.224Z,18.43
2017-07-20T05:11:19.137Z,16.27
2017-07-20T05:13:47.053Z,16.63
2017-07-20T05:16:13.998Z,15.97
2017-07-20T05:18:40.964Z,16.77
2017-07-20T05:21:08.658Z,17.73
2017-07-20T05:23:35.617Z,17.00
2017-07-20T05:26:02.562Z,17.57
2017-07-20T05:28:30.548Z,17.83
2017-07-20T05:30:57.485Z,16.43
2017-07-20T05:33:24.442Z,16.50
2017-07-20T05:35:51.385Z,18.53
2017-07-20T05:38:19.337Z,18.60
2017-07-20T05:40:46.264Z,16.70
2017-07-20T05:43:13.241Z,16.93
2017-07-20T05:45:40.191Z,16.60
2017-07-20T05:48:08.141Z,16.63
2017-07-20T05:50:35.078Z,18.20
2017-07-20T05:53:02.057Z,17.63
2017-07-20T05:55:29.990Z,17.03
2017-07-20T05:57:56.997Z,17.80
2017-07-20T06:00:24.920Z,17.20
2017-07-20T06:02:51.864Z,17.87
2017-07-20T06:05:18.868Z,17.00
2017-07-20T06:07:47.610Z,17.47
2017-07-20T06:10:14.573Z,16.10
2017-07-20T06:12:42.457Z,16.70
2017-07-20T06:15:09.423Z,17.47
2017-07-20T06:17:38.118Z,16.80
2017-07-20T06:20:05.075Z,16.87
2017-07-20T06:22:32.013Z,17.67
2017-07-20T06:24:59.659Z,16.57
2017-07-20T06:27:27.288Z,16.43
2017-07-20T06:29:54.254Z,15.60
2017-07-20T06:32:21.965Z,16.33
2017-07-20T06:34:48.928Z,18.93
2017-07-20T06:37:16.564Z,17.83
2017-07-20T06:39:43.517Z,17.03
2017-07-20T06:42:10.446Z,17.97
2017-07-20T06:44:37.409Z,17.60
2017-07-20T06:47:06.118Z,17.90
2017-07-20T06:49:33.109Z,17.00
2017-07-20T06:52:00.965Z,17.43
2017-07-20T06:54:27.910Z,17.10
2017-07-20T06:56:54.865Z,16.50
2017-07-20T06:59:21.796Z,17.47
2017-07-20T07:01:50.525Z,16.73
2017-07-20T07:04:17.458Z,19.50
2017-07-20T07:06:44.419Z,15.17
2017-07-20T07:09:11.609Z,16.43
2017-07-20T07:11:39.365Z,16.67
2017-07-20T07:14:07.237Z,18.10
2017-07-20T07:16:34.984Z,17.10
2017-07-20T07:19:01.939Z,15.50
2017-07-20T07:21:28.889Z,17.50
2017-07-20T07:23:56.609Z,17.03
2017-07-20T07:26:23.573Z,15.40
2017-07-20T07:28:50.503Z,15.07
2017-07-20T07:31:17.459Z,16.70
2017-07-20T07:33:44.389Z,15.90
2017-07-20T07:36:11.357Z,14.77
2017-07-20T07:38:38.301Z,16.30
2017-07-20T07:41:05.249Z,15.00
2017-07-20T07:43:32.214Z,16.60
2017-07-20T07:46:01.873Z,15.80
2017-07-20T07:48:28.843Z,16.30
2017-07-20T07:50:56.833Z,17.00
2017-07-20T07:53:23.769Z,18.47
2017-07-20T07:55:50.695Z,17.87
2017-07-20T07:58:17.653Z,16.70
2017-07-20T08:00:45.569Z,17.00
2017-07-20T08:03:13.460Z,17.83
2017-07-20T08:05:42.391Z,17.53
2017-07-20T08:08:09.323Z,18.10
2017-07-20T08:10:37.109Z,18.20
2017-07-20T08:13:04.067Z,19.00
2017-07-20T08:15:31.028Z,17.60
2017-07-20T08:17:57.976Z,18.80
2017-07-20T08:20:24.918Z,17.70
2017-07-20T08:22:51.872Z,16.50
2017-07-20T08:25:18.857Z,17.13
2017-07-20T08:27:46.676Z,18.90
2017-07-20T08:30:14.464Z,17.53
2017-07-20T08:32:42.310Z,16.90
2017-07-20T08:35:09.277Z,17.10
2017-07-20T08:37:36.215Z,17.40
2017-07-20T08:40:03.199Z,17.93
2017-07-20T08:42:31.926Z,17.83
2017-07-20T08:44:58.872Z,17.17
2017-07-20T08:47:26.850Z,17.80
2017-07-20T08:49:53.812Z,16.90
2017-07-20T08:52:20.776Z,16.07
2017-07-20T08:54:48.645Z,16.80
2017-07-20T08:57:16.384Z,17.33
2017-07-20T08:59:43.321Z,15.70
2017-07-20T09:02:10.284Z,16.60
2017-07-20T09:04:37.231Z,16.03
2017-07-20T09:07:04.180Z,16.10
2017-07-20T09:09:31.112Z,16.67
2017-07-20T09:11:58.976Z,16.60
2017-07-20T09:14:25.917Z,16.40
2017-07-20T09:16:52.868Z,15.50
2017-07-20T09:19:21.733Z,16.20
2017-07-20T09:21:48.686Z,17.07
2017-07-20T09:24:15.612Z,16.30
2017-07-20T09:26:44.337Z,15.23
2017-07-20T09:29:11.278Z,15.60
2017-07-20T09:31:38.258Z,16.33
2017-07-20T09:34:05.198Z,15.43
2017-07-20T09:36:32.171Z,16.00
2017-07-20T09:38:59.119Z,16.87
2017-07-20T09:41:26.068Z,16.33
2017-07-20T09:43:53.016Z,18.20
2017-07-20T09:46:20.027Z,16.33
2017-07-20T09:48:46.967Z,16.67
2017-07-20T09:51:13.912Z,15.50
2017-07-20T09:53:41.640Z,17.60
2017-07-20T09:56:08.581Z,17.03
2017-07-20T09:58:36.329Z,16.00
2017-07-20T10:01:03.281Z,17.10
2017-07-20T10:03:30.244Z,16.47
2017-07-20T10:05:57.953Z,15.63
2017-07-20T10:08:24.910Z,15.87
2017-07-20T10:10:51.853Z,17.43
2017-07-20T10:13:18.822Z,15.90
2017-07-20T10:15:45.773Z,16.00
2017-07-20T10:18:12.744Z,14.47
2017-07-20T10:20:40.646Z,15.47
2017-07-20T10:23:07.638Z,14.73
2017-07-20T10:25:34.638Z,15.80
2017-07-20T10:28:01.589Z,14.43
2017-07-20T10:30:29.324Z,14.40
2017-07-20T10:32:56.270Z,16.27
2017-07-20T10:35:23.227Z,14.70
2017-07-20T10:37:50.203Z,14.10
2017-07-20T10:40:17.156Z,15.50
2017-07-20T10:42:44.116Z,15.87
2017-07-20T10:45:12.073Z,14.10
2017-07-20T10:47:39.034Z,14.60
2017-07-20T10:50:07.922Z,13.80
2017-07-20T10:52:34.894Z,15.37
2017-07-20T10:55:01.825Z,14.60
2017-07-20T10:57:29.541Z,15.20
2017-07-20T10:59:58.257Z,14.63
2017-07-20T11:02:25.241Z,15.17
2017-07-20T11:04:52.183Z,14.57
2017-07-20T11:07:19.872Z,13.47
2017-07-20T11:09:46.860Z,14.60
2017-07-20T11:12:13.821Z,14.63
2017-07-20T11:14:40.787Z,15.40
2017-07-20T11:17:07.733Z,15.47
2017-07-20T11:19:34.693Z,14.90
2017-07-20T11:22:01.653Z,17.03
2017-07-20T11:24:28.624Z,16.33
2017-07-20T11:26:55.606Z,15.97
2017-07-20T11:29:22.570Z,17.60
2017-07-20T11:31:49.513Z,18.33
2017-07-20T11:34:16.481Z,16.50
2017-07-20T11:36:44.365Z,16.97
2017-07-20T11:39:11.338Z,17.03
2017-07-20T11:41:38.294Z,15.90
2017-07-20T11:44:09.017Z,17.70
2017-07-20T11:46:36.725Z,18.87
2017-07-20T11:49:05.617Z,17.97
2017-07-20T11:51:32.577Z,18.27
2017-07-20T11:54:00.297Z,19.47
2017-07-20T11:56:27.242Z,19.87
2017-07-20T11:58:55.189Z,18.20
2017-07-20T12:01:24.066Z,18.47
2017-07-20T12:03:51.046Z,19.47
2017-07-20T12:06:18.776Z,18.43
2017-07-20T12:08:46.752Z,18.37
2017-07-20T12:11:13.695Z,21.60
2017-07-20T12:13:40.661Z,20.40
2017-07-20T12:16:07.592Z,17.83
2017-07-20T12:18:34.560Z,19.93
2017-07-20T12:21:02.269Z,19.00
2017-07-20T12:23:31.172Z,18.87
2017-07-20T12:25:58.128Z,18.97
2017-07-20T12:28:25.121Z,20.10
2017-07-20T12:30:52.080Z,19.83
2017-07-20T12:33:19.972Z,19.10
2017-07-20T12:35:46.912Z,18.73
2017-07-20T12:38:13.892Z,19.40
2017-07-20T12:40:41.858Z,19.50
2017-07-20T12:43:08.817Z,21.37
2017-07-20T12:45:35.790Z,20.30
2017-07-20T12:48:02.741Z,20.97
2017-07-20T12:50:29.705Z,20.23
2017-07-20T12:52:56.650Z,20.17
2017-07-20T12:55:23.608Z,21.57
2017-07-20T12:57:50.574Z,20.23
2017-07-20T13:00:18.302Z,20.30
2017-07-20T13:02:46.173Z,21.10
2017-07-20T13:05:13.132Z,21.87
2017-07-20T13:07:40.064Z,21.30
2017-07-20T13:10:21.539Z,18.77
2017-07-20T13:12:48.517Z,22.20
2017-07-20T13:15:15.528Z,21.10
2017-07-20T13:17:44.446Z,20.60
2017-07-20T13:20:15.254Z,19.57
2017-07-20T13:22:42.183Z,20.17
2017-07-20T13:25:09.143Z,20.90
2017-07-20T13:27:36.076Z,21.00
2017-07-20T13:30:04.006Z,19.10
2017-07-20T13:32:30.978Z,19.93
2017-07-20T13:34:57.943Z,16.07
2017-07-20T13:37:24.981Z,16.60
2017-07-20T13:39:52.863Z,17.27
2017-07-20T13:42:19.803Z,19.07
2017-07-20T13:44:47.509Z,18.20
2017-07-20T13:47:19.380Z,18.77
2017-07-20T13:49:46.341Z,17.20
2017-07-20T13:52:14.041Z,17.10
2017-07-20T13:54:41.023Z,15.37
2017-07-20T13:57:07.956Z,14.73
2017-07-20T13:59:35.886Z,15.30
2017-07-20T14:02:02.842Z,14.50
2017-07-20T14:04:29.805Z,15.30
2017-07-20T14:06:56.731Z,14.80
2017-07-20T14:09:23.694Z,14.27
2017-07-20T14:11:50.637Z,15.30
2017-07-20T14:14:17.581Z,13.80
2017-07-20T14:16:44.540Z,13.30
2017-07-20T14:19:13.458Z,15.17
2017-07-20T14:21:40.414Z,14.13
2017-07-20T14:24:08.122Z,14.40
2017-07-20T14:26:35.093Z,13.67
2017-07-20T14:29:03.056Z,13.87
2017-07-20T14:31:30.104Z,13.93
2017-07-20T14:33:57.051Z,13.73
2017-07-20T14:36:24.014Z,14.60
2017-07-20T14:38:50.975Z,15.03
2017-07-20T14:41:18.934Z,13.27
2017-07-20T14:43:45.880Z,15.00
2017-07-20T14:46:12.837Z,17.10
2017-07-20T14:48:39.842Z,16.40
2017-07-20T14:51:06.813Z,15.17
2017-07-20T14:53:33.786Z,15.17
2017-07-20T14:56:00.738Z,16.10
2017-07-20T14:58:28.448Z,16.60
2017-07-20T15:00:55.413Z,16.70
2017-07-20T15:03:22.363Z,15.37
2017-07-20T15:05:49.382Z,15.80
2017-07-20T15:08:16.326Z,15.17
2017-07-20T15:10:43.296Z,17.50
2017-07-20T15:13:10.241Z,17.07
2017-07-20T15:15:40.374Z,15.53
2017-07-20T15:18:07.312Z,16.63
2017-07-20T15:20:34.279Z,15.90
2017-07-20T15:23:02.225Z,17.07
2017-07-20T15:25:29.194Z,18.20
2017-07-20T15:27:56.137Z,15.70
2017-07-20T15:30:24.100Z,15.10
2017-07-20T15:32:54.865Z,19.63
2017-07-20T15:35:21.833Z,19.10
2017-07-20T15:37:48.774Z,17.97
2017-07-20T15:40:15.741Z,19.03
2017-07-20T15:42:44.681Z,17.30
2017-07-20T15:45:12.564Z,16.77
2017-07-20T15:47:39.519Z,18.87
2017-07-20T15:50:06.461Z,18.90
2017-07-20T15:52:34.385Z,19.83
2017-07-20T15:55:01.371Z,21.53
2017-07-20T15:57:29.259Z,22.67
2017-07-20T15:59:56.196Z,22.90
2017-07-20T16:02:23.159Z,20.87
2017-07-20T16:04:50.106Z,19.73
2017-07-20T16:07:17.832Z,18.87
2017-07-20T16:09:44.768Z,19.03
2017-07-20T16:12:11.714Z,19.37
2017-07-20T16:14:38.638Z,19.50
2017-07-20T16:17:06.495Z,16.07
2017-07-20T16:19:33.431Z,16.30
2017-07-20T16:22:01.162Z,15.00
2017-07-20T16:24:28.084Z,15.30
2017-07-20T16:26:55.049Z,12.57
2017-07-20T16:29:22.989Z,14.53
2017-07-20T16:31:50.027Z,14.67
2017-07-20T16:34:16.970Z,15.23
2017-07-20T16:36:43.934Z,14.67
2017-07-20T16:39:12.645Z,14.17
2017-07-20T16:41:39.604Z,13.13
2017-07-20T16:44:06.585Z,13.07
2017-07-20T16:46:33.578Z,12.90
2017-07-20T16:49:00.525Z,13.17
2017-07-20T16:51:31.080Z,12.83
2017-07-20T16:53:59.037Z,13.67
2017-07-20T16:56:26.958Z,10.70
2017-07-20T16:58:54.801Z,13.87
2017-07-20T17:01:21.743Z,12.23
2017-07-20T17:03:48.709Z,13.33
2017-07-20T17:06:15.673Z,11.60
2017-07-20T17:08:43.605Z,11.63
2017-07-20T17:11:10.561Z,11.47
2017-07-20T17:13:37.521Z,11.60
2017-07-20T17:16:06.245Z,12.57
2017-07-20T17:18:33.219Z,13.00
2017-07-20T17:21:00.165Z,11.47
2017-07-20T17:23:30.645Z,12.33
2017-07-20T17:25:57.605Z,12.97
2017-07-20T17:28:24.574Z,13.43
2017-07-20T17:30:51.519Z,12.83
2017-07-20T17:33:20.424Z,13.80
2017-07-20T17:35:47.365Z,13.17
2017-07-20T17:38:14.362Z,12.57
2017-07-20T17:40:42.096Z,13.90
2017-07-20T17:43:10.017Z,13.50
2017-07-20T17:45:36.978Z,12.40
2017-07-20T17:48:03.921Z,14.17
2017-07-20T17:50:30.885Z,12.63
2017-07-20T17:52:57.821Z,12.37
2017-07-20T17:55:24.785Z,12.00
2017-07-20T17:57:51.715Z,12.63
2017-07-20T18:00:22.076Z,12.57
2017-07-20T18:02:49.799Z,14.07
2017-07-20T18:05:16.744Z,13.97
2017-07-20T18:07:43.934Z,11.23
2017-07-20T18:10:12.662Z,14.60
2017-07-20T18:12:40.549Z,13.63
2017-07-20T18:15:07.492Z,13.37
2017-07-20T18:17:35.435Z,14.60
2017-07-20T18:20:02.392Z,14.03
2017-07-20T18:22:29.358Z,14.07
2017-07-20T18:24:57.179Z,13.10
2017-07-20T18:27:24.169Z,13.90
2017-07-20T18:29:51.167Z,12.53
2017-07-20T18:32:18.125Z,12.80
2017-07-20T18:34:45.072Z,13.50
2017-07-20T18:37:12.047Z,14.67
2017-07-20T18:39:38.989Z,13.20
2017-07-20T18:42:07.957Z,14.20
2017-07-20T18:44:35.657Z,14.07
2017-07-20T18:47:06.385Z,13.53
2017-07-20T18:49:34.269Z,11.60
2017-07-20T18:52:02.241Z,12.43
2017-07-20T18:54:30.411Z,13.70
2017-07-20T18:56:58.340Z,13.50
2017-07-20T18:59:26.235Z,14.50
2017-07-20T19:01:54.202Z,16.00
2017-07-20T19:04:21.178Z,16.13
2017-07-20T19:06:48.145Z,13.90
2017-07-20T19:09:16.877Z,13.77
2017-07-20T19:11:43.870Z,13.33
2017-07-20T19:14:13.586Z,12.73
2017-07-20T19:16:43.190Z,12.20
2017-07-20T19:19:11.116Z,11.80
2017-07-20T19:21:38.101Z,11.77
2017-07-20T19:24:06.051Z,12.60
2017-07-20T19:26:33.981Z,12.40
2017-07-20T19:29:00.933Z,12.87
2017-07-20T19:31:28.824Z,13.83
2017-07-20T19:33:56.528Z,13.10
2017-07-20T19:36:23.488Z,11.60
2017-07-20T19:38:50.418Z,11.83
2017-07-20T19:41:17.370Z,12.73
2017-07-20T19:43:44.305Z,12.20
2017-07-20T19:46:12.068Z,11.70
2017-07-20T19:48:39.778Z,11.97
2017-07-20T19:51:06.723Z,12.80
2017-07-20T19:53:33.704Z,12.00
2017-07-20T19:56:00.631Z,13.03
2017-07-20T19:58:27.613Z,11.90
2017-07-20T20:00:54.560Z,13.47
2017-07-20T20:03:22.292Z,12.03
2017-07-20T20:05:49.233Z,14.48
2017-07-20T20:08:16.194Z,14.07
2017-07-20T20:10:43.136Z,13.93
2017-07-20T20:13:10.101Z,16.47
2017-07-20T20:15:37.058Z,20.57
2017-07-20T20:18:04.820Z,15.13
2017-07-20T20:20:31.782Z,14.30
2017-07-20T20:22:58.720Z,15.93
2017-07-20T20:25:27.671Z,13.53
2017-07-20T20:27:54.690Z,14.07
2017-07-20T20:30:21.644Z,15.57
2017-07-20T20:32:48.607Z,14.80
2017-07-20T20:35:15.577Z,13.93
2017-07-20T20:37:43.301Z,15.03
2017-07-20T20:40:10.277Z,16.47
2017-07-20T20:42:38.225Z,14.90
2017-07-20T20:45:05.229Z,17.83
2017-07-20T20:47:32.869Z,16.33
2017-07-20T20:50:00.605Z,12.57
2017-07-20T20:52:27.634Z,14.77
2017-07-20T20:54:55.817Z,12.83
2017-07-20T20:57:22.805Z,14.13
2017-07-20T20:59:50.536Z,15.20
2017-07-20T21:02:19.508Z,14.03
2017-07-20T21:04:46.481Z,14.60
2017-07-20T21:07:13.429Z,14.40
2017-07-20T21:09:40.379Z,13.50
2017-07-20T21:12:08.092Z,12.53
2017-07-20T21:14:35.062Z,14.00
2017-07-20T21:17:02.005Z,14.40
2017-07-20T21:19:28.949Z,16.43
2017-07-20T21:21:55.938Z,15.47
2017-07-20T21:24:23.653Z,15.33
2017-07-20T21:26:50.613Z,15.60
2017-07-20T21:29:17.551Z,16.20
2017-07-20T21:31:44.508Z,17.20
2017-07-20T21:34:12.432Z,17.20
2017-07-20T21:36:40.341Z,16.67
2017-07-20T21:39:07.310Z,17.43
2017-07-20T21:41:35.915Z,15.43
2017-07-20T21:44:03.666Z,18.00
2017-07-20T21:46:30.608Z,18.37
2017-07-20T21:48:57.589Z,18.47
2017-07-20T21:51:24.537Z,17.37
2017-07-20T21:53:51.521Z,16.37
2017-07-20T21:56:18.463Z,16.37
2017-07-20T21:58:45.437Z,17.30
2017-07-20T22:01:12.385Z,17.00
2017-07-20T22:03:40.136Z,15.97
2017-07-20T22:06:07.077Z,17.17
2017-07-20T22:08:34.022Z,16.37
2017-07-20T22:11:00.967Z,15.20
2017-07-20T22:13:27.896Z,16.20
2017-07-20T22:15:55.620Z,16.37
2017-07-20T22:18:22.569Z,17.57
2017-07-20T22:20:50.525Z,17.37
2017-07-20T22:23:17.493Z,15.13
2017-07-20T22:25:45.218Z,15.17
2017-07-20T22:28:12.157Z,17.00
2017-07-20T22:30:39.118Z,17.10
2017-07-20T22:33:06.061Z,19.80
2017-07-20T22:35:33.013Z,21.10
2017-07-20T22:37:59.961Z,18.50
2017-07-20T22:40:26.926Z,22.23
2017-07-20T22:42:53.865Z,25.03
2017-07-20T22:45:21.611Z,26.93
2017-07-20T22:47:48.564Z,27.60
2017-07-20T22:50:16.333Z,26.83
2017-07-20T22:52:45.382Z,28.13
2017-07-20T22:55:12.371Z,25.00
2017-07-20T22:57:39.318Z,26.20
2017-07-20T23:00:07.051Z,26.27
2017-07-20T23:02:34.002Z,23.77
2017-07-20T23:05:00.970Z,20.90
2017-07-20T23:07:27.912Z,16.20
2017-07-20T23:09:54.889Z,18.00
2017-07-20T23:12:21.820Z,20.70
2017-07-20T23:14:49.520Z,22.87
2017-07-20T23:17:16.473Z,21.60
2017-07-20T23:19:43.418Z,24.97
2017-07-20T23:22:10.363Z,26.70
2017-07-20T23:24:37.311Z,29.90
2017-07-20T23:27:04.269Z,26.00
2017-07-20T23:29:32.192Z,29.23
2017-07-20T23:31:59.157Z,31.20
2017-07-20T23:34:26.113Z,31.93
2017-07-20T23:36:53.072Z,33.57
2017-07-20T23:39:20.015Z,35.47
2017-07-20T23:41:46.976Z,34.43
2017-07-20T23:44:13.945Z,33.70
2017-07-20T23:46:41.677Z,34.67
2017-07-20T23:49:08.613Z,34.37
2017-07-20T23:51:36.576Z,32.27
2017-07-20T23:54:03.523Z,34.90
2017-07-20T23:56:30.497Z,35.37
2017-07-20T23:58:57.445Z,31.67
